Mohler, Washington
Current Conditions -  °F | °C
As of 8:58 PM on Monday 22 Dec 2014 (Local Time) from KSKA Reporting Station
Clear Clear  
Wind Chill: 25°   Ceiling: Unl
Heat Index: 32°   Visibility: 10mi
Dew Point: 27°   Wind: 8mph
Humidity: 80%   Direction: 240°WSW
Pressure: 30.3"   Gusts: NA
Location:  47.4°N, 118.33°W
Report Text: KSKA 230458Z AUTO 24007KT 10SM CLR 00/M03 A3030 RMK AO2 UPB55 CIG 140 RWY05 SLP285
Loading
Personal Weather Stations






























Interactive Weather Map New forecast layout! Learn more

10-Day Weather Forecast

Advertisements
Track Severe Weather on mobile